createdAt,value
2022-08-18T00:02:21.978Z,101234.13
2022-08-18T00:04:57.112Z,101238.56
2022-08-18T00:07:30.457Z,101236.78
2022-08-18T00:10:01.443Z,101239.47
2022-08-18T00:12:33.665Z,101236.81
2022-08-18T00:15:05.579Z,101235.00
2022-08-18T00:17:39.063Z,101235.88
2022-08-18T00:20:12.166Z,101237.66
2022-08-18T00:22:42.745Z,101245.63
2022-08-18T00:25:14.734Z,101234.94
2022-08-18T00:27:44.673Z,101236.72
2022-08-18T00:30:18.400Z,101230.50
2022-08-18T00:32:53.730Z,101218.94
2022-08-18T00:35:29.121Z,101226.94
2022-08-18T00:38:02.171Z,101226.94
2022-08-18T00:40:37.827Z,101227.81
2022-08-18T00:43:10.284Z,101220.69
2022-08-18T00:45:45.553Z,101226.94
2022-08-18T00:48:18.704Z,101224.25
2022-08-18T00:50:54.642Z,101218.94
2022-08-18T00:53:30.363Z,101212.69
2022-08-18T00:56:03.403Z,101213.59
2022-08-18T00:58:37.775Z,101218.91
2022-08-18T01:01:09.843Z,101210.03
2022-08-18T01:03:44.928Z,101208.25
2022-08-18T01:06:19.985Z,101210.88
2022-08-18T01:08:49.773Z,101215.34
2022-08-18T01:11:19.517Z,101210.00
2022-08-18T01:13:49.248Z,101215.34
2022-08-18T01:16:32.410Z,101218.03
2022-08-18T01:19:17.137Z,101217.16
2022-08-18T01:21:55.008Z,101218.03
2022-08-18T01:24:43.469Z,101222.50
2022-08-18T01:27:18.966Z,101223.44
2022-08-18T01:29:49.079Z,101219.00
2022-08-18T01:32:20.728Z,101226.13
2022-08-18T01:34:52.452Z,101220.78
2022-08-18T01:37:24.961Z,101226.16
2022-08-18T01:41:25.256Z,101231.47
2022-08-18T01:42:47.387Z,101232.38
2022-08-18T01:45:20.770Z,101219.91
2022-08-18T01:47:50.764Z,101217.22
2022-08-18T01:50:21.254Z,101220.81
2022-08-18T01:52:53.490Z,101222.56
2022-08-18T01:55:28.517Z,101225.25
2022-08-18T01:57:58.611Z,101219.91
2022-08-18T02:00:28.460Z,101222.56
2022-08-18T02:03:02.159Z,101219.91
2022-08-18T02:05:37.212Z,101218.16
2022-08-18T02:08:08.274Z,101220.81
2022-08-18T02:10:42.054Z,101211.88
2022-08-18T02:13:12.116Z,101225.22
2022-08-18T02:15:43.011Z,101219.00
2022-08-18T02:18:45.239Z,101218.16
2022-08-18T02:21:12.689Z,101218.13
2022-08-18T02:23:49.261Z,101211.00
2022-08-18T02:26:26.308Z,101210.13
2022-08-18T02:28:56.073Z,101205.66
2022-08-18T02:31:28.066Z,101200.31
2022-08-18T02:33:57.837Z,101198.56
2022-08-18T02:36:28.417Z,101202.13
2022-08-18T02:38:59.901Z,101199.44
2022-08-18T02:41:33.265Z,101202.13
2022-08-18T02:44:03.485Z,101200.38
2022-08-18T02:46:33.456Z,101195.88
2022-08-18T02:49:03.665Z,101194.13
2022-08-18T02:51:34.266Z,101189.69
2022-08-18T02:54:05.232Z,101193.22
2022-08-18T02:56:41.195Z,101189.69
2022-08-18T02:59:16.984Z,101198.59
2022-08-18T03:01:49.015Z,101203.03
2022-08-18T03:04:25.292Z,101198.56
2022-08-18T03:06:58.399Z,101197.66
2022-08-18T03:09:29.405Z,101205.69
2022-08-18T03:12:02.309Z,101209.25
2022-08-18T03:14:32.537Z,101217.28
2022-08-18T03:17:02.704Z,101214.59
2022-08-18T03:19:32.873Z,101212.81
2022-08-18T03:22:27.589Z,101211.03
2022-08-18T03:24:55.891Z,101210.13
2022-08-18T03:27:28.368Z,101205.69
2022-08-18T03:29:58.736Z,101200.34
2022-08-18T03:32:28.761Z,101204.78
2022-08-18T03:34:59.527Z,101214.56
2022-08-18T03:37:29.257Z,101212.81
2022-08-18T03:39:59.290Z,101212.81
2022-08-18T03:42:31.719Z,101211.91
2022-08-18T03:45:12.532Z,101216.34
2022-08-18T03:47:52.707Z,101214.59
2022-08-18T03:50:25.662Z,101213.72
2022-08-18T03:52:55.645Z,101216.38
2022-08-18T03:55:25.436Z,101216.38
2022-08-18T03:58:02.981Z,101220.81
2022-08-18T04:00:34.372Z,101222.59
2022-08-18T04:03:05.855Z,101219.03
2022-08-18T04:05:36.577Z,101219.94
2022-08-18T04:08:07.025Z,101223.47
2022-08-18T04:10:38.380Z,101211.91
2022-08-18T04:13:10.691Z,101220.81
2022-08-18T04:15:40.455Z,101224.38
2022-08-18T04:18:12.331Z,101225.25
2022-08-18T04:20:58.931Z,101225.28
2022-08-18T04:23:29.739Z,101227.94
2022-08-18T04:26:10.397Z,101227.06
2022-08-18T04:28:51.551Z,101225.28
2022-08-18T04:31:24.521Z,101241.28
2022-08-18T04:33:54.779Z,101246.66
2022-08-18T04:36:24.532Z,101245.75
2022-08-18T04:38:56.638Z,101246.66
2022-08-18T04:41:27.921Z,101245.75
2022-08-18T04:44:01.354Z,101240.41
2022-08-18T04:46:32.321Z,101239.50
2022-08-18T04:49:02.325Z,101250.19
2022-08-18T04:52:27.063Z,101241.28
2022-08-18T04:54:19.978Z,101243.09
2022-08-18T04:56:49.701Z,101245.75
2022-08-18T04:59:22.030Z,101244.88
2022-08-18T05:01:51.786Z,101248.41
2022-08-18T05:04:21.497Z,101252.88
2022-08-18T05:06:51.483Z,101253.78
2022-08-18T05:09:23.093Z,101258.22
2022-08-18T05:11:53.767Z,101251.97
2022-08-18T05:14:26.159Z,101251.97
2022-08-18T05:16:56.151Z,101260.00
2022-08-18T05:19:26.863Z,101266.25
2022-08-18T05:22:00.083Z,101270.69
2022-08-18T05:24:37.167Z,101267.13
2022-08-18T05:27:08.342Z,101274.25
2022-08-18T05:29:45.718Z,101268.00
2022-08-18T05:32:41.014Z,101265.31
2022-08-18T05:35:09.964Z,101267.09
2022-08-18T05:37:51.347Z,101274.25
2022-08-18T05:40:26.658Z,101268.88
2022-08-18T05:42:59.961Z,101273.34
2022-08-18T05:45:34.860Z,101272.47
2022-08-18T05:48:04.778Z,101278.69
2022-08-18T05:50:37.022Z,101283.13
2022-08-18T05:53:13.947Z,101284.91
2022-08-18T05:56:02.190Z,101283.13
2022-08-18T05:58:46.284Z,101278.69
2022-08-18T06:01:21.668Z,101279.56
2022-08-18T06:03:56.407Z,101275.09
2022-08-18T06:06:29.746Z,101274.19
2022-08-18T06:09:06.265Z,101280.41
2022-08-18T06:11:36.070Z,101284.81
2022-08-18T06:14:05.882Z,101292.84
2022-08-18T06:16:56.671Z,101291.03
2022-08-18T06:19:37.221Z,101288.31
2022-08-18T06:22:18.744Z,101290.06
2022-08-18T06:24:57.658Z,101285.63
2022-08-18T06:27:40.442Z,101282.91
2022-08-18T06:30:17.335Z,101293.56
2022-08-18T06:33:02.023Z,101290.91
2022-08-18T06:35:38.553Z,101296.25
2022-08-18T06:38:33.739Z,101298.06
2022-08-18T06:41:05.835Z,101299.81
2022-08-18T06:43:39.513Z,101298.06
2022-08-18T06:46:15.577Z,101302.50
2022-08-18T06:48:56.595Z,101301.59
2022-08-18T06:51:31.037Z,101308.69
2022-08-18T06:54:03.385Z,101306.03
2022-08-18T06:56:48.627Z,101308.72
2022-08-18T06:59:22.784Z,101301.63
2022-08-18T07:01:57.898Z,101308.72
2022-08-18T07:04:44.478Z,101309.59
2022-08-18T07:07:23.702Z,101310.47
2022-08-18T07:09:55.935Z,101317.56
2022-08-18T07:12:32.695Z,101312.22
2022-08-18T07:15:05.872Z,101314.91
2022-08-18T07:17:42.519Z,101318.44
2022-08-18T07:20:22.827Z,101319.31
2022-08-18T07:22:59.802Z,101324.66
2022-08-18T07:25:32.905Z,101322.03
2022-08-18T07:28:02.972Z,101328.25
2022-08-18T07:30:37.187Z,101327.34
2022-08-18T07:33:17.092Z,101333.59
2022-08-18T07:35:56.600Z,101333.59
2022-08-18T07:38:49.192Z,101334.50
2022-08-18T07:41:22.961Z,101339.91
2022-08-18T07:44:07.535Z,101339.97
2022-08-18T07:46:56.232Z,101348.00
2022-08-18T07:49:29.562Z,101348.03
2022-08-18T07:52:14.637Z,101340.00
2022-08-18T07:55:07.662Z,101340.91
2022-08-18T07:57:49.769Z,101333.78
2022-08-18T08:00:47.825Z,101340.06
2022-08-18T08:03:33.497Z,101332.97
2022-08-18T08:06:11.820Z,101336.53
2022-08-18T08:08:47.494Z,101339.22
2022-08-18T08:11:29.544Z,101344.59
2022-08-18T08:14:15.543Z,101334.81
2022-08-18T08:16:50.177Z,101338.41
2022-08-18T08:20:02.335Z,101341.09
2022-08-18T08:22:36.168Z,101334.81
2022-08-18T08:25:42.888Z,101337.53
2022-08-18T08:28:14.616Z,101338.41
2022-08-18T08:30:49.936Z,101358.00
2022-08-18T08:33:27.514Z,101364.25
2022-08-18T08:36:01.028Z,101366.91
2022-08-18T08:38:42.940Z,101367.78
2022-08-18T08:41:22.639Z,101373.16
2022-08-18T08:44:03.340Z,101368.72
2022-08-18T08:46:40.220Z,101374.94
2022-08-18T08:49:19.737Z,101388.31
2022-08-18T08:51:56.981Z,101377.63
2022-08-18T08:54:33.557Z,101386.53
2022-08-18T08:57:09.824Z,101388.28
2022-08-18T08:59:42.262Z,101390.97
2022-08-18T09:02:47.839Z,101396.34
2022-08-18T09:05:21.809Z,101391.88
2022-08-18T09:08:16.192Z,101383.84
2022-08-18T09:11:18.956Z,101385.63
2022-08-18T09:14:07.902Z,101382.97
2022-08-18T09:16:50.966Z,101383.81
2022-08-18T09:19:38.718Z,101388.28
2022-08-18T09:22:16.228Z,101398.06
2022-08-18T09:24:51.787Z,101390.03
2022-08-18T09:27:53.747Z,101386.47
2022-08-18T09:30:42.952Z,101390.94
2022-08-18T09:33:23.075Z,101393.63
2022-08-18T09:36:10.109Z,101387.38
2022-08-18T09:39:02.131Z,101378.47
2022-08-18T09:41:38.198Z,101390.91
2022-08-18T09:47:06.212Z,101385.47
2022-08-18T09:49:51.462Z,101392.56
2022-08-18T09:53:02.457Z,101388.97
2022-08-18T09:56:01.406Z,101394.34
2022-08-18T09:58:57.334Z,101402.31
2022-08-18T10:01:42.099Z,101387.13
2022-08-18T10:04:51.700Z,101394.25
2022-08-18T10:07:32.998Z,101390.72
2022-08-18T10:11:01.579Z,101403.22
2022-08-18T10:13:17.691Z,101408.59
2022-08-18T10:16:11.032Z,101406.78
2022-08-18T10:19:03.140Z,101406.78
2022-08-18T10:22:07.116Z,101413.91
2022-08-18T10:24:43.896Z,101412.19
2022-08-18T10:27:49.053Z,101413.97
2022-08-18T10:31:06.139Z,101411.31
2022-08-18T10:33:59.280Z,101413.09
2022-08-18T10:36:54.245Z,101411.28
2022-08-18T10:39:46.982Z,101413.97
2022-08-18T10:45:25.315Z,101413.13
2022-08-18T10:48:16.609Z,101414.94
2022-08-18T10:50:54.246Z,101414.06
2022-08-18T10:53:39.014Z,101415.88
2022-08-18T10:56:15.044Z,101421.22
2022-08-18T10:59:20.207Z,101418.56
2022-08-18T11:02:17.862Z,101409.63
2022-08-18T11:04:58.651Z,101410.50
2022-08-18T11:07:34.109Z,101415.84
2022-08-18T11:10:57.712Z,101410.47
2022-08-18T11:13:21.794Z,101417.59
2022-08-18T11:16:03.985Z,101423.84
2022-08-18T11:18:44.275Z,101420.28
2022-08-18T11:21:33.461Z,101422.03
2022-08-18T11:24:14.232Z,101427.41
2022-08-18T11:26:52.419Z,101426.53
2022-08-18T11:29:35.473Z,101426.53
2022-08-18T11:35:07.725Z,101426.53
2022-08-18T11:37:49.730Z,101426.56
2022-08-18T11:43:41.168Z,101417.63
2022-08-18T11:46:19.160Z,101430.13
2022-08-18T11:48:58.187Z,101420.31
2022-08-18T11:51:29.976Z,101417.63
2022-08-18T11:54:02.528Z,101427.47
2022-08-18T11:59:54.887Z,101424.81
2022-08-18T12:02:28.846Z,101425.69
2022-08-18T12:05:08.729Z,101426.59
2022-08-18T12:07:57.411Z,101427.44
2022-08-18T12:10:30.785Z,101427.38
2022-08-18T12:13:01.514Z,101412.19
2022-08-18T12:15:44.216Z,101421.09
2022-08-18T12:21:08.106Z,101413.94
2022-08-18T12:23:49.621Z,101413.91
2022-08-18T12:26:38.836Z,101416.56
2022-08-18T12:29:12.641Z,101412.13
2022-08-18T12:31:50.303Z,101406.75
2022-08-18T12:34:26.241Z,101405.88
2022-08-18T12:36:58.712Z,101413.00
2022-08-18T12:39:28.703Z,101402.28
2022-08-18T12:41:59.536Z,101402.28
2022-08-18T12:44:29.482Z,101396.03
2022-08-18T12:47:04.322Z,101392.47
2022-08-18T12:49:36.294Z,101387.09
2022-08-18T12:52:08.230Z,101374.59
2022-08-18T12:54:55.686Z,101367.44
2022-08-18T12:57:51.690Z,101372.75
2022-08-18T13:00:27.815Z,101374.50
2022-08-18T13:03:02.142Z,101372.69
2022-08-18T13:05:32.077Z,101382.44
2022-08-18T13:08:05.942Z,101385.13
2022-08-18T13:10:45.153Z,101377.91
2022-08-18T13:13:16.118Z,101377.91
2022-08-18T13:15:58.091Z,101374.38
2022-08-18T13:18:31.227Z,101376.16
2022-08-18T13:21:01.182Z,101369.88
2022-08-18T13:23:32.065Z,101373.41
2022-08-18T13:26:03.987Z,101366.19
2022-08-18T13:28:36.192Z,101371.56
2022-08-18T13:31:26.185Z,101372.47
2022-08-18T13:33:59.942Z,101364.44
2022-08-18T13:36:46.248Z,101368.03
2022-08-18T13:39:20.515Z,101367.09
2022-08-18T13:41:56.312Z,101371.56
2022-08-18T13:44:30.230Z,101361.72
2022-08-18T13:47:01.021Z,101374.25
2022-08-18T13:49:33.728Z,101361.75
2022-08-18T13:52:12.240Z,101363.56
2022-08-18T13:54:55.431Z,101364.47
2022-08-18T13:57:25.502Z,101361.72
2022-08-18T13:59:56.066Z,101376.00
2022-08-18T14:02:26.970Z,101377.78
2022-08-18T14:04:59.470Z,101380.44
2022-08-18T14:07:29.239Z,101372.41
2022-08-18T14:09:59.011Z,101380.44
2022-08-18T14:12:35.138Z,101382.28
2022-08-18T14:15:06.830Z,101388.56
2022-08-18T14:17:37.543Z,101392.16
2022-08-18T14:20:27.412Z,101400.19
2022-08-18T14:23:11.840Z,101395.78
2022-08-18T14:25:54.388Z,101392.25
2022-08-18T14:28:24.513Z,101390.47
2022-08-18T14:30:55.461Z,101404.72
2022-08-18T14:33:34.107Z,101402.94
2022-08-18T14:36:20.186Z,101399.38
2022-08-18T14:39:00.221Z,101400.25
2022-08-18T14:41:31.074Z,101406.50
2022-08-18T14:44:12.666Z,101404.69
2022-08-18T14:46:52.438Z,101405.66
2022-08-18T14:49:29.166Z,101402.09
2022-08-18T14:52:02.760Z,101393.22
2022-08-18T14:54:33.354Z,101392.28
2022-08-18T14:57:05.560Z,101400.34
2022-08-18T14:59:37.677Z,101397.66
2022-08-18T15:02:11.242Z,101403.03
2022-08-18T15:04:52.930Z,101407.53
2022-08-18T15:07:29.293Z,101419.09
2022-08-18T15:10:14.505Z,101415.50
2022-08-18T15:12:47.113Z,101412.78
2022-08-18T15:15:18.525Z,101419.03
2022-08-18T15:17:53.022Z,101419.03
2022-08-18T15:20:28.916Z,101419.91
2022-08-18T15:23:22.606Z,101420.78
2022-08-18T15:25:54.723Z,101417.25
2022-08-18T15:28:28.100Z,101420.84
2022-08-18T15:33:51.243Z,101408.31
2022-08-18T15:36:28.739Z,101408.31
2022-08-18T15:39:04.561Z,101403.81
2022-08-18T15:41:43.791Z,101402.91
2022-08-18T15:44:15.695Z,101402.06
2022-08-18T15:46:47.308Z,101397.66
2022-08-18T15:49:21.681Z,101400.41
2022-08-18T15:51:52.542Z,101410.28
2022-08-18T15:54:25.465Z,101408.50
2022-08-18T15:56:57.595Z,101405.81
2022-08-18T15:59:34.188Z,101407.63
2022-08-18T16:02:11.411Z,101396.00
2022-08-18T16:04:44.979Z,101390.69
2022-08-18T16:07:17.929Z,101381.72
2022-08-18T16:10:04.987Z,101377.28
2022-08-18T16:12:34.709Z,101362.13
2022-08-18T16:15:07.389Z,101358.56
2022-08-18T16:17:38.513Z,101357.69
2022-08-18T16:20:10.018Z,101363.06
2022-08-18T16:22:40.699Z,101359.53
2022-08-18T16:25:13.760Z,101356.84
2022-08-18T16:27:44.218Z,101364.91
2022-08-18T16:30:17.316Z,101355.06
2022-08-18T16:32:47.628Z,101351.53
2022-08-18T16:35:18.781Z,101349.78
2022-08-18T16:37:49.790Z,101356.03
2022-08-18T16:40:23.590Z,101360.50
2022-08-18T16:42:59.486Z,101356.09
2022-08-18T16:45:31.452Z,101351.63
2022-08-18T16:48:01.179Z,101349.88
2022-08-18T16:50:31.529Z,101352.53
2022-08-18T16:53:01.286Z,101351.66
2022-08-18T16:55:34.359Z,101346.31
2022-08-18T16:58:16.571Z,101351.63
2022-08-18T17:00:58.893Z,101351.66
2022-08-18T17:03:41.641Z,101346.31
2022-08-18T17:06:14.078Z,101339.22
2022-08-18T17:08:45.013Z,101352.59
2022-08-18T17:11:20.011Z,101345.47
2022-08-18T17:13:51.436Z,101334.78
2022-08-18T17:16:22.506Z,101332.09
2022-08-18T17:18:52.244Z,101333.00
2022-08-18T17:21:26.054Z,101331.25
2022-08-18T17:23:57.482Z,101343.75
2022-08-18T17:26:42.744Z,101332.16
2022-08-18T17:29:19.124Z,101331.25
2022-08-18T17:31:53.254Z,101322.38
2022-08-18T17:34:25.969Z,101312.56
2022-08-18T17:36:58.619Z,101317.00
2022-08-18T17:39:35.926Z,101328.59
2022-08-18T17:42:21.461Z,101333.94
2022-08-18T17:44:52.637Z,101339.28
2022-08-18T17:47:33.383Z,101331.28
2022-08-18T17:50:26.979Z,101332.19
2022-08-18T17:53:05.520Z,101332.19
2022-08-18T17:55:41.369Z,101334.84
2022-08-18T17:58:22.378Z,101334.84
2022-08-18T18:00:52.670Z,101338.41
2022-08-18T18:03:23.130Z,101328.59
2022-08-18T18:05:58.158Z,101335.72
2022-08-18T18:08:56.421Z,101326.81
2022-08-18T18:11:33.927Z,101330.38
2022-08-18T18:14:28.846Z,101327.69
2022-08-18T18:17:13.892Z,101333.97
2022-08-18T18:19:45.001Z,101329.50
2022-08-18T18:22:21.624Z,101334.84
2022-08-18T18:24:55.395Z,101337.50
2022-08-18T18:27:31.822Z,101331.28
2022-08-18T18:30:06.948Z,101345.53
2022-08-18T18:32:39.427Z,101340.19
2022-08-18T18:35:23.722Z,101338.41
2022-08-18T18:37:57.791Z,101345.56
2022-08-18T18:40:40.212Z,101347.34
2022-08-18T18:43:25.998Z,101357.13
2022-08-18T18:46:30.051Z,101354.44
2022-08-18T18:49:10.522Z,101353.56
2022-08-18T18:51:50.707Z,101358.00
2022-08-18T18:54:34.166Z,101358.91
2022-08-18T18:57:12.100Z,101364.25
2022-08-18T19:02:34.011Z,101366.91
2022-08-18T19:05:20.256Z,101361.56
2022-08-18T19:07:59.897Z,101372.28
2022-08-18T19:10:37.296Z,101364.25
2022-08-18T19:13:32.246Z,101369.59
2022-08-18T19:16:23.722Z,101364.25
2022-08-18T19:18:57.948Z,101362.47
2022-08-18T19:22:04.397Z,101369.59
2022-08-18T19:24:42.115Z,101377.63
2022-08-18T19:27:23.281Z,101377.59
2022-08-18T19:29:55.157Z,101375.81
2022-08-18T19:32:40.946Z,101366.91
2022-08-18T19:35:16.326Z,101374.00
2022-08-18T19:38:20.981Z,101363.28
2022-08-18T19:40:55.564Z,101362.41
2022-08-18T19:43:45.088Z,101364.19
2022-08-18T19:46:19.058Z,101354.38
2022-08-18T19:48:58.175Z,101353.50
2022-08-18T19:51:34.532Z,101349.06
2022-08-18T19:54:29.261Z,101353.50
2022-08-18T19:57:11.283Z,101353.47
2022-08-18T20:00:08.996Z,101359.72
2022-08-18T20:02:55.371Z,101357.91
2022-08-18T20:05:39.177Z,101349.88
2022-08-18T20:08:38.226Z,101352.53
2022-08-18T20:11:41.483Z,101342.75
2022-08-18T20:14:14.797Z,101340.06
2022-08-18T20:16:46.090Z,101343.63
2022-08-18T20:19:50.740Z,101344.50
2022-08-18T20:22:39.224Z,101348.03
2022-08-18T20:25:34.299Z,101346.25
2022-08-18T20:28:26.443Z,101348.91
2022-08-18T20:31:04.964Z,101341.78
2022-08-18T20:33:43.908Z,101343.53
2022-08-18T20:36:23.400Z,101349.75
2022-08-18T20:38:55.193Z,101351.56
2022-08-18T20:41:51.092Z,101348.00
2022-08-18T20:44:48.098Z,101352.41
2022-08-18T20:47:55.284Z,101356.84
2022-08-18T20:50:44.655Z,101347.97
2022-08-18T20:53:22.939Z,101346.13
2022-08-18T20:55:59.963Z,101344.34
2022-08-18T20:58:34.903Z,101342.56
2022-08-18T21:01:08.282Z,101347.91
2022-08-18T21:03:39.684Z,101343.44
2022-08-18T21:06:10.993Z,101347.88
2022-08-18T21:08:47.467Z,101346.06
2022-08-18T21:11:32.264Z,101337.16
2022-08-18T21:14:04.362Z,101339.84
2022-08-18T21:16:43.437Z,101343.38
2022-08-18T21:19:19.785Z,101346.03
2022-08-18T21:21:52.977Z,101340.69
2022-08-18T21:24:30.406Z,101343.34
2022-08-18T21:27:02.667Z,101344.25
2022-08-18T21:29:46.942Z,101341.56
2022-08-18T21:32:25.107Z,101358.44
2022-08-18T21:34:54.867Z,101352.22
2022-08-18T21:37:24.752Z,101357.53
2022-08-18T21:39:57.678Z,101359.28
2022-08-18T21:42:31.861Z,101359.28
2022-08-18T21:45:02.004Z,101355.72
2022-08-18T21:47:36.791Z,101346.81
2022-08-18T21:50:14.874Z,101348.56
2022-08-18T21:52:53.358Z,101352.13
2022-08-18T21:55:30.348Z,101342.31
2022-08-18T21:58:07.836Z,101344.97
2022-08-18T22:00:39.938Z,101339.59
2022-08-18T22:03:31.575Z,101333.41
2022-08-18T22:06:03.783Z,101348.50
2022-08-18T22:08:36.385Z,101351.13
2022-08-18T22:12:00.623Z,101348.47
2022-08-18T22:14:53.771Z,101346.66
2022-08-18T22:17:35.469Z,101341.31
2022-08-18T22:20:40.330Z,101347.50
2022-08-18T22:23:33.554Z,101350.19
2022-08-18T22:26:11.109Z,101354.56
2022-08-18T22:28:49.055Z,101359.00
2022-08-18T22:31:21.226Z,101357.22
2022-08-18T22:33:51.944Z,101361.63
2022-08-18T22:36:28.243Z,101356.28
2022-08-18T22:38:58.416Z,101349.13
2022-08-18T22:41:28.467Z,101350.88
2022-08-18T22:43:58.474Z,101346.41
2022-08-18T22:46:28.851Z,101349.03
2022-08-18T22:48:58.618Z,101341.91
2022-08-18T22:51:32.559Z,101347.22
2022-08-18T22:54:02.580Z,101351.63
2022-08-18T22:56:34.897Z,101352.50
2022-08-18T22:59:15.941Z,101345.38
2022-08-18T23:01:51.827Z,101348.91
2022-08-18T23:04:25.487Z,101344.44
2022-08-18T23:06:59.085Z,101343.53
2022-08-18T23:09:31.463Z,101349.72
2022-08-18T23:12:05.252Z,101354.13
2022-08-18T23:14:36.188Z,101349.66
2022-08-18T23:17:07.984Z,101353.19
2022-08-18T23:19:37.787Z,101344.25
2022-08-18T23:22:12.541Z,101345.09
2022-08-18T23:24:43.592Z,101345.09
2022-08-18T23:27:13.268Z,101339.75
2022-08-18T23:29:43.128Z,101332.59
2022-08-18T23:32:13.463Z,101338.81
2022-08-18T23:34:43.727Z,101337.88
2022-08-18T23:37:16.070Z,101336.09
2022-08-18T23:39:48.399Z,101346.72
2022-08-18T23:42:18.216Z,101356.47
2022-08-18T23:44:47.907Z,101352.03
2022-08-18T23:47:19.653Z,101360.00
2022-08-18T23:49:49.785Z,101355.59
2022-08-18T23:52:22.144Z,101358.22
2022-08-18T23:54:51.846Z,101359.06
2022-08-18T23:57:21.561Z,101365.28
2022-08-18T23:59:51.352Z,101370.56
